Time;durP1;ratioP1;P1;durP2;ratioP2;P2;SDS_P1;SDS_P2;PMS_P1;PMS_P2;Temp;Humidity;BMP_temperature;BMP_pressure;BME280_temperature;BME280_humidity;BME280_pressure;Samples;Min_cycle;Max_cycle;Signal;HPM_P1;HPM_P2
2022/10/07 00:01:53;;;;;;;18.53;11.40;;;11.20;99.90;;;;;;5111079;28;20754;-73
2022/10/07 00:04:20;;;;;;;16.67;12.20;;;11.20;99.90;;;;;;5111315;28;20217;-73
2022/10/07 00:06:47;;;;;;;17.90;11.73;;;11.20;99.90;;;;;;5111718;28;20224;-73
2022/10/07 00:09:15;;;;;;;17.50;12.10;;;11.20;99.90;;;;;;5112772;28;20212;-73
2022/10/07 00:11:42;;;;;;;18.90;12.17;;;11.20;99.90;;;;;;5112868;28;20216;-72
2022/10/07 00:14:09;;;;;;;18.47;11.53;;;11.20;99.90;;;;;;5107813;28;20212;-72
2022/10/07 00:16:37;;;;;;;16.73;11.67;;;11.20;99.90;;;;;;5106670;28;20251;-73
2022/10/07 00:19:08;;;;;;;17.97;12.03;;;11.20;99.90;;;;;;5112570;28;20207;-73
2022/10/07 00:21:36;;;;;;;17.67;11.37;;;11.10;99.90;;;;;;5112843;28;20208;-73
2022/10/07 00:24:04;;;;;;;12.10;9.83;;;11.10;99.90;;;;;;5111789;28;20214;-74
2022/10/07 00:26:32;;;;;;;13.90;10.63;;;11.10;99.90;;;;;;5110875;28;20613;-73
2022/10/07 00:29:00;;;;;;;16.70;10.43;;;11.10;99.90;;;;;;5108087;28;20226;-72
2022/10/07 00:31:28;;;;;;;16.13;10.03;;;11.10;99.90;;;;;;5110206;28;20211;-72
2022/10/07 00:33:56;;;;;;;15.67;9.90;;;11.10;99.90;;;;;;5097609;28;20204;-74
2022/10/07 00:36:26;;;;;;;14.37;9.87;;;11.10;99.90;;;;;;5094564;27;20270;-72
2022/10/07 00:38:55;;;;;;;13.40;9.07;;;11.10;99.90;;;;;;5108505;28;20203;-73
2022/10/07 00:41:25;;;;;;;15.53;9.40;;;11.10;99.90;;;;;;5112468;28;20708;-73
2022/10/07 00:43:52;;;;;;;15.40;9.97;;;11.00;99.90;;;;;;5112611;28;20634;-73
2022/10/07 00:46:28;;;;;;;13.90;9.07;;;11.00;99.90;;;;;;5111198;28;20239;-73
2022/10/07 00:48:56;;;;;;;16.43;9.63;;;11.00;99.90;;;;;;5110900;28;20266;-72
2022/10/07 00:51:24;;;;;;;17.17;9.20;;;11.00;99.90;;;;;;5112386;28;20633;-73
2022/10/07 00:53:54;;;;;;;15.10;9.27;;;10.90;99.90;;;;;;5105515;28;20210;-73
2022/10/07 00:56:23;;;;;;;13.83;8.47;;;11.00;99.90;;;;;;5111250;28;20312;-73
2022/10/07 00:58:51;;;;;;;15.40;9.20;;;10.90;99.90;;;;;;5112873;28;20556;-73
2022/10/07 01:01:18;;;;;;;13.83;8.60;;;11.00;99.90;;;;;;5111415;28;20570;-73
2022/10/07 01:03:47;;;;;;;15.50;9.37;;;11.00;99.90;;;;;;5110857;28;20265;-72
2022/10/07 01:06:14;;;;;;;15.50;9.37;;;10.90;99.90;;;;;;5111918;27;20224;-73
2022/10/07 01:08:44;;;;;;;15.03;9.30;;;10.90;99.90;;;;;;5112300;28;20208;-73
2022/10/07 01:11:21;;;;;;;15.07;9.03;;;10.90;99.90;;;;;;5098731;28;20200;-73
2022/10/07 01:13:58;;;;;;;14.30;8.90;;;10.90;99.90;;;;;;5108101;28;20206;-72
2022/10/07 01:16:32;;;;;;;15.67;9.10;;;10.90;99.90;;;;;;5107464;28;20215;-73
2022/10/07 01:19:09;;;;;;;13.00;8.63;;;10.90;99.90;;;;;;5110041;28;20212;-73
2022/10/07 01:21:43;;;;;;;14.50;9.00;;;10.80;99.90;;;;;;5110643;28;20208;-73
2022/10/07 01:24:24;;;;;;;11.90;7.83;;;10.80;99.90;;;;;;5110820;28;20196;-73
2022/10/07 01:26:59;;;;;;;10.73;7.83;;;10.80;99.90;;;;;;5110671;28;20367;-72
2022/10/07 01:29:31;;;;;;;14.63;9.00;;;10.80;99.90;;;;;;5103165;28;20214;-72
2022/10/07 01:32:03;;;;;;;13.23;8.53;;;10.80;99.90;;;;;;5103882;28;20219;-73
2022/10/07 01:34:33;;;;;;;15.10;8.83;;;10.80;99.90;;;;;;5110895;28;20692;-73
2022/10/07 01:37:01;;;;;;;13.57;8.13;;;10.80;99.90;;;;;;5110477;28;20210;-73
2022/10/07 01:39:33;;;;;;;12.43;8.50;;;10.80;99.90;;;;;;5109737;28;20507;-74
2022/10/07 01:42:02;;;;;;;13.43;8.40;;;10.80;99.90;;;;;;5110698;28;20211;-73
2022/10/07 01:44:30;;;;;;;13.90;8.50;;;10.80;99.90;;;;;;5110447;28;20208;-73
2022/10/07 01:46:57;;;;;;;12.27;7.90;;;10.80;99.90;;;;;;5110919;28;20319;-73
2022/10/07 01:49:24;;;;;;;13.97;8.73;;;10.70;99.90;;;;;;5110203;28;20207;-73
2022/10/07 01:52:03;;;;;;;14.60;8.20;;;10.80;99.90;;;;;;5111446;28;20671;-73
2022/10/07 01:54:41;;;;;;;12.33;8.20;;;10.80;99.90;;;;;;5110522;28;20210;-73
2022/10/07 01:57:21;;;;;;;13.83;8.30;;;10.70;99.90;;;;;;5110901;28;20208;-73
2022/10/07 02:00:05;;;;;;;13.40;8.37;;;10.70;99.90;;;;;;5110363;28;20210;-73
2022/10/07 02:02:51;;;;;;;11.67;8.13;;;10.70;99.90;;;;;;5107132;28;20630;-74
2022/10/07 02:05:27;;;;;;;11.97;7.60;;;10.70;99.90;;;;;;5108388;28;20211;-73
2022/10/07 02:08:11;;;;;;;11.57;7.00;;;10.60;99.90;;;;;;5110182;28;20222;-73
2022/10/07 02:10:45;;;;;;;11.67;7.77;;;10.60;99.90;;;;;;5107322;28;20211;-74
2022/10/07 02:13:22;;;;;;;12.10;7.73;;;10.60;99.90;;;;;;5112042;28;20203;-73
2022/10/07 02:15:56;;;;;;;12.17;7.57;;;10.60;99.90;;;;;;5115485;28;20205;-73
2022/10/07 02:18:23;;;;;;;13.03;7.63;;;10.60;99.90;;;;;;5114999;28;20211;-73
2022/10/07 02:20:51;;;;;;;9.07;7.00;;;10.60;99.90;;;;;;5114754;28;20211;-74
2022/10/07 02:23:21;;;;;;;10.90;7.63;;;10.60;99.90;;;;;;5115377;28;20231;-73
2022/10/07 02:25:50;;;;;;;10.00;7.27;;;10.60;99.90;;;;;;5114024;28;20235;-72
2022/10/07 02:28:23;;;;;;;12.13;7.60;;;10.60;99.90;;;;;;5111741;28;20588;-73
2022/10/07 02:30:53;;;;;;;15.70;7.70;;;10.60;99.90;;;;;;5114769;28;20583;-73
2022/10/07 02:33:22;;;;;;;12.67;7.07;;;10.60;99.90;;;;;;5114661;28;20298;-73
2022/10/07 02:35:53;;;;;;;11.60;6.60;;;10.60;99.90;;;;;;5114311;28;20564;-72
2022/10/07 02:38:21;;;;;;;11.43;7.27;;;10.60;99.90;;;;;;5113671;28;20299;-73
2022/10/07 02:40:58;;;;;;;11.73;7.03;;;10.50;99.90;;;;;;5114410;28;20207;-73
2022/10/07 02:43:31;;;;;;;12.23;6.97;;;10.50;99.90;;;;;;5115202;28;20200;-73
2022/10/07 02:46:03;;;;;;;12.13;7.13;;;10.50;99.90;;;;;;5110809;28;20215;-74
2022/10/07 02:48:35;;;;;;;10.60;7.13;;;10.50;99.90;;;;;;5114923;28;20547;-73
2022/10/07 02:51:06;;;;;;;14.27;6.50;;;10.60;99.90;;;;;;5113065;28;20204;-73
2022/10/07 02:53:34;;;;;;;10.93;6.77;;;10.60;99.90;;;;;;5114541;28;20577;-72
2022/10/07 02:56:04;;;;;;;12.90;6.73;;;10.50;99.90;;;;;;5115126;27;20204;-73
2022/10/07 02:58:34;;;;;;;10.43;7.23;;;10.40;99.90;;;;;;5106660;28;20283;-73
2022/10/07 03:01:02;;;;;;;8.13;5.60;;;10.50;99.90;;;;;;5107623;28;20209;-73
2022/10/07 03:03:30;;;;;;;10.53;6.00;;;10.50;99.90;;;;;;5114201;28;20200;-73
2022/10/07 03:05:57;;;;;;;9.23;7.03;;;10.50;99.90;;;;;;5114079;28;20572;-73
2022/10/07 03:08:24;;;;;;;14.80;7.23;;;10.50;99.90;;;;;;5112891;28;20224;-73
2022/10/07 03:10:51;;;;;;;9.77;5.70;;;10.50;99.90;;;;;;5113551;28;20208;-73
2022/10/07 03:13:18;;;;;;;10.87;6.40;;;10.50;99.90;;;;;;5112521;28;20212;-73
2022/10/07 03:15:46;;;;;;;9.50;6.03;;;10.50;99.90;;;;;;5111969;28;20551;-72
2022/10/07 03:18:27;;;;;;;9.03;6.13;;;10.50;99.90;;;;;;5106552;28;20625;-72
2022/10/07 03:20:55;;;;;;;12.03;6.90;;;10.50;99.90;;;;;;5111960;28;20207;-72
2022/10/07 03:23:22;;;;;;;10.63;5.93;;;10.50;99.90;;;;;;5113420;28;20599;-73
2022/10/07 03:25:51;;;;;;;11.00;6.47;;;10.40;99.90;;;;;;5113520;28;20231;-72
2022/10/07 03:28:19;;;;;;;9.67;6.10;;;10.40;99.90;;;;;;5114906;28;20227;-73
2022/10/07 03:30:47;;;;;;;9.90;5.97;;;10.40;99.90;;;;;;5111120;28;20283;-73
2022/10/07 03:33:15;;;;;;;11.37;6.33;;;10.40;99.90;;;;;;5105691;28;20580;-73
2022/10/07 03:35:41;;;;;;;9.67;6.27;;;10.40;99.90;;;;;;5112171;28;20282;-74
2022/10/07 03:38:09;;;;;;;11.90;5.80;;;10.40;99.90;;;;;;5111240;28;20227;-73
2022/10/07 03:40:36;;;;;;;10.93;5.90;;;10.40;99.90;;;;;;5113308;28;20660;-73
2022/10/07 03:43:03;;;;;;;11.20;5.67;;;10.40;99.90;;;;;;5114762;28;20649;-72
2022/10/07 03:45:31;;;;;;;9.70;6.17;;;10.40;99.90;;;;;;5113720;28;20212;-72
2022/10/07 03:47:59;;;;;;;10.20;5.97;;;10.40;99.90;;;;;;5113241;28;20215;-72
2022/10/07 03:50:27;;;;;;;7.60;6.13;;;10.40;99.90;;;;;;5108687;28;20200;-73
2022/10/07 03:52:54;;;;;;;9.97;6.20;;;10.40;99.90;;;;;;5112719;28;20204;-72
2022/10/07 03:55:21;;;;;;;9.57;5.70;;;10.40;99.90;;;;;;5112695;28;20617;-73
2022/10/07 03:57:52;;;;;;;12.23;6.70;;;10.40;99.90;;;;;;5113120;28;20219;-72
2022/10/07 04:00:20;;;;;;;10.17;6.80;;;10.40;99.90;;;;;;5111502;27;20735;-74
2022/10/07 04:02:48;;;;;;;11.10;6.20;;;10.40;99.90;;;;;;5111761;28;20204;-73
2022/10/07 04:05:16;;;;;;;10.87;5.77;;;10.40;99.90;;;;;;5112030;28;20204;-72
2022/10/07 04:07:43;;;;;;;9.20;5.50;;;10.40;99.90;;;;;;5107734;28;20231;-73
2022/10/07 04:10:10;;;;;;;8.97;5.30;;;10.40;99.90;;;;;;5100856;28;20224;-73
2022/10/07 04:12:37;;;;;;;11.60;6.10;;;10.40;99.90;;;;;;5113529;28;20256;-73
2022/10/07 04:15:05;;;;;;;9.60;6.13;;;10.40;99.90;;;;;;5094802;28;20227;-73
2022/10/07 04:17:32;;;;;;;9.07;5.20;;;10.40;99.90;;;;;;5106641;28;20200;-73
2022/10/07 04:19:59;;;;;;;6.47;5.33;;;10.40;99.90;;;;;;5104329;28;20204;-74
2022/10/07 04:22:27;;;;;;;8.03;4.80;;;10.30;99.90;;;;;;5113258;28;20253;-73
2022/10/07 04:27:38;;;;;;;9.00;5.63;;;10.40;99.90;;;;;;5112405;28;20207;-70
2022/10/07 04:30:07;;;;;;;13.60;5.53;;;10.40;99.90;;;;;;5110844;28;20671;-71
2022/10/07 04:32:34;;;;;;;10.13;5.53;;;10.30;99.90;;;;;;5111889;28;20200;-70
2022/10/07 04:35:02;;;;;;;7.77;5.30;;;10.30;99.90;;;;;;5111000;28;20214;-70
2022/10/07 04:37:30;;;;;;;9.93;5.17;;;10.40;99.90;;;;;;5107790;28;20641;-71
2022/10/07 04:39:57;;;;;;;14.00;5.97;;;10.30;99.90;;;;;;5103930;28;20205;-71
2022/10/07 04:45:09;;;;;;;9.37;5.63;;;10.30;99.90;;;;;;5099036;28;20766;-71
2022/10/07 04:47:35;;;;;;;7.43;5.17;;;10.30;99.90;;;;;;5111171;28;20692;-70
2022/10/07 04:50:02;;;;;;;7.63;5.40;;;10.30;99.90;;;;;;5108227;28;20219;-69
2022/10/07 04:52:30;;;;;;;13.07;4.90;;;10.30;99.90;;;;;;5111786;28;20208;-69
2022/10/07 04:54:57;;;;;;;8.03;5.50;;;10.30;99.90;;;;;;5109591;28;20196;-69
2022/10/07 04:57:24;;;;;;;7.80;5.43;;;10.30;99.90;;;;;;5109020;28;20223;-70
2022/10/07 04:59:50;;;;;;;9.53;5.60;;;10.30;99.90;;;;;;5109730;28;20203;-69
2022/10/07 05:02:17;;;;;;;10.50;5.67;;;10.30;99.90;;;;;;5105726;28;20215;-68
2022/10/07 05:04:44;;;;;;;10.63;5.70;;;10.40;99.90;;;;;;5109382;28;20567;-68
2022/10/07 05:07:11;;;;;;;7.57;5.30;;;10.40;99.90;;;;;;5105133;28;20323;-69
2022/10/07 05:09:40;;;;;;;10.47;5.70;;;10.40;99.90;;;;;;5111723;28;20251;-68
2022/10/07 05:12:07;;;;;;;16.63;5.47;;;10.50;99.90;;;;;;5111313;28;20508;-69
2022/10/07 05:14:34;;;;;;;9.07;6.03;;;10.50;99.90;;;;;;5108841;28;20279;-68
2022/10/07 05:17:02;;;;;;;10.13;5.40;;;10.50;99.90;;;;;;5101083;28;20203;-69
2022/10/07 05:19:29;;;;;;;8.73;5.20;;;10.50;99.90;;;;;;5100558;28;20201;-68
2022/10/07 05:21:56;;;;;;;14.87;6.00;;;10.60;99.90;;;;;;5103343;28;20203;-68
2022/10/07 05:24:22;;;;;;;9.30;5.03;;;10.60;99.90;;;;;;5102610;28;20211;-68
2022/10/07 05:26:52;;;;;;;9.07;4.90;;;10.70;99.90;;;;;;5107084;28;20203;-66
2022/10/07 05:29:18;;;;;;;10.60;5.03;;;10.80;99.90;;;;;;5108087;28;20310;-69
2022/10/07 05:31:45;;;;;;;10.23;5.60;;;10.80;99.90;;;;;;5110437;28;20261;-70
2022/10/07 05:34:12;;;;;;;11.40;5.73;;;10.90;99.90;;;;;;5110015;28;20208;-70
2022/10/07 05:36:39;;;;;;;10.10;5.10;;;10.90;99.90;;;;;;5104332;28;20200;-69
2022/10/07 05:39:06;;;;;;;9.97;5.50;;;11.00;99.90;;;;;;5108909;28;20196;-68
2022/10/07 05:41:32;;;;;;;10.73;5.70;;;11.00;99.90;;;;;;5109065;28;20207;-68
2022/10/07 05:44:01;;;;;;;13.27;5.53;;;11.00;99.90;;;;;;5106444;28;20207;-66
2022/10/07 05:46:28;;;;;;;13.73;5.20;;;11.00;99.90;;;;;;5103399;28;20208;-68
2022/10/07 05:48:55;;;;;;;16.03;5.53;;;11.10;99.90;;;;;;5108000;28;20220;-69
2022/10/07 05:51:23;;;;;;;12.20;5.40;;;11.20;99.90;;;;;;5106847;28;20216;-70
2022/10/07 05:53:53;;;;;;;12.70;5.33;;;11.20;99.90;;;;;;5110046;28;20211;-69
2022/10/07 05:56:21;;;;;;;14.87;7.13;;;11.30;99.90;;;;;;5107758;28;20316;-71
2022/10/07 05:58:48;;;;;;;10.47;5.00;;;11.30;99.90;;;;;;5105238;28;20208;-68
2022/10/07 06:01:19;;;;;;;12.87;5.37;;;11.30;99.90;;;;;;5109855;28;20214;-71
2022/10/07 06:03:49;;;;;;;18.20;5.30;;;11.40;99.90;;;;;;5109689;28;20286;-70
2022/10/07 06:06:17;;;;;;;10.67;4.70;;;11.50;99.90;;;;;;5107608;28;20208;-70
2022/10/07 06:08:44;;;;;;;9.70;5.13;;;11.50;99.90;;;;;;5108755;28;20701;-70
2022/10/07 06:13:57;;;;;;;15.50;5.13;;;11.60;99.90;;;;;;5102134;28;20245;-70
2022/10/07 06:16:26;;;;;;;16.70;5.93;;;11.60;99.90;;;;;;5107378;28;20211;-70
2022/10/07 06:18:54;;;;;;;11.43;5.00;;;11.70;99.90;;;;;;5109743;28;20577;-70
2022/10/07 06:21:25;;;;;;;8.87;5.17;;;11.80;99.90;;;;;;5109746;28;20204;-70
2022/10/07 06:23:52;;;;;;;9.53;5.13;;;11.90;99.90;;;;;;5108196;28;20281;-70
2022/10/07 06:26:21;;;;;;;12.60;6.13;;;12.00;99.90;;;;;;5107986;28;20250;-70
2022/10/07 06:28:48;;;;;;;11.07;6.20;;;12.20;99.90;;;;;;5109604;28;20242;-70
2022/10/07 06:31:21;;;;;;;13.37;5.93;;;12.30;99.90;;;;;;5109951;28;20203;-70
2022/10/07 06:33:49;;;;;;;10.97;4.90;;;12.40;99.90;;;;;;5106884;28;20210;-70
2022/10/07 06:36:17;;;;;;;16.17;5.77;;;12.60;99.90;;;;;;5109029;28;20286;-70
2022/10/07 06:38:45;;;;;;;6.97;5.30;;;12.60;99.90;;;;;;5110827;28;20208;-70
2022/10/07 06:41:13;;;;;;;10.70;5.07;;;12.70;99.90;;;;;;5110590;28;20527;-70
2022/10/07 06:43:39;;;;;;;11.40;5.93;;;12.70;99.90;;;;;;5107545;28;20208;-69
2022/10/07 06:46:08;;;;;;;12.40;5.20;;;12.80;99.90;;;;;;5105307;28;20208;-71
2022/10/07 06:48:35;;;;;;;9.83;4.53;;;12.90;99.90;;;;;;5107675;28;20234;-68
2022/10/07 06:51:04;;;;;;;7.67;4.40;;;12.90;99.90;;;;;;5106724;28;20218;-69
2022/10/07 06:53:32;;;;;;;13.83;4.83;;;13.10;99.90;;;;;;5104774;28;20303;-70
2022/10/07 06:56:01;;;;;;;6.80;4.20;;;13.20;99.90;;;;;;5106930;28;20216;-67
2022/10/07 06:58:29;;;;;;;8.73;4.30;;;13.30;99.90;;;;;;5110724;28;20661;-71
2022/10/07 07:00:57;;;;;;;10.83;5.53;;;13.50;99.90;;;;;;5111805;28;20548;-71
2022/10/07 07:03:25;;;;;;;10.93;4.40;;;13.60;99.90;;;;;;5110538;28;20202;-69
2022/10/07 07:05:53;;;;;;;11.33;4.60;;;13.90;99.90;;;;;;5113226;28;20257;-72
2022/10/07 07:08:23;;;;;;;6.87;4.10;;;14.40;99.90;;;;;;5114472;28;20242;-73
2022/10/07 07:10:50;;;;;;;8.90;4.80;;;14.70;99.90;;;;;;5110912;28;20223;-70
2022/10/07 07:13:17;;;;;;;6.07;3.93;;;14.90;99.90;;;;;;5105336;27;20220;-70
2022/10/07 07:15:44;;;;;;;9.77;3.63;;;15.00;99.90;;;;;;5106404;28;20478;-71
2022/10/07 07:18:11;;;;;;;11.17;4.10;;;15.10;99.90;;;;;;5109562;28;20200;-72
2022/10/07 07:20:39;;;;;;;13.77;5.20;;;15.20;99.90;;;;;;5104175;28;20211;-71
2022/10/07 07:23:07;;;;;;;12.03;5.87;;;15.20;99.90;;;;;;5108501;28;20683;-71
2022/10/07 07:25:38;;;;;;;13.50;6.60;;;15.20;99.90;;;;;;5110403;28;20892;-71
2022/10/07 07:28:06;;;;;;;10.40;6.43;;;15.50;99.90;;;;;;5104388;28;20296;-72
2022/10/07 07:30:35;;;;;;;13.27;6.57;;;15.90;99.90;;;;;;5108172;28;20207;-71
2022/10/07 07:33:04;;;;;;;12.10;6.13;;;16.30;99.90;;;;;;5106920;28;20212;-71
2022/10/07 07:35:31;;;;;;;10.43;6.23;;;16.40;99.90;;;;;;5112029;28;20204;-70
2022/10/07 07:37:59;;;;;;;13.53;6.57;;;16.50;99.90;;;;;;5108645;28;20235;-71
2022/10/07 07:40:26;;;;;;;11.97;6.07;;;16.50;99.90;;;;;;5108276;28;20249;-71
2022/10/07 07:42:54;;;;;;;12.37;6.57;;;16.40;99.90;;;;;;5110356;28;20200;-70
2022/10/07 07:45:23;;;;;;;11.40;5.43;;;16.40;99.90;;;;;;5111015;28;20214;-70
2022/10/07 07:47:50;;;;;;;10.88;5.03;;;16.40;99.90;;;;;;5108266;28;20567;-70
2022/10/07 07:50:19;;;;;;;10.10;5.27;;;16.50;99.90;;;;;;5110396;28;20206;-72
2022/10/07 07:52:46;;;;;;;12.68;5.35;;;16.50;99.90;;;;;;5112311;28;20211;-71
2022/10/07 07:55:13;;;;;;;9.27;4.27;;;16.50;99.90;;;;;;5109903;28;20204;-72
2022/10/07 07:57:40;;;;;;;12.60;4.30;;;16.60;99.90;;;;;;5108472;28;20608;-72
2022/10/07 08:00:10;;;;;;;7.97;3.88;;;16.60;99.90;;;;;;5110548;28;20559;-71
2022/10/07 08:02:37;;;;;;;6.35;3.78;;;16.60;99.90;;;;;;5099222;28;20231;-71
2022/10/07 08:05:04;;;;;;;8.20;3.88;;;16.70;99.90;;;;;;5106937;28;20215;-72
2022/10/07 08:07:31;;;;;;;7.07;3.83;;;16.70;99.90;;;;;;5110092;28;20200;-71
2022/10/07 08:09:58;;;;;;;8.37;3.10;;;16.80;99.90;;;;;;5109774;28;20239;-70
2022/10/07 08:12:25;;;;;;;9.95;3.30;;;16.90;99.90;;;;;;5112858;28;20195;-71
2022/10/07 08:14:52;;;;;;;6.68;3.55;;;17.10;99.90;;;;;;5113176;28;20203;-71
2022/10/07 08:17:20;;;;;;;7.63;3.70;;;17.40;99.90;;;;;;5102131;27;20257;-70
2022/10/07 08:19:47;;;;;;;5.78;3.05;;;17.40;99.90;;;;;;5110358;27;20207;-71
2022/10/07 08:22:16;;;;;;;4.97;3.20;;;17.60;99.90;;;;;;5103991;28;20251;-70
2022/10/07 08:24:43;;;;;;;8.32;3.28;;;17.90;99.90;;;;;;5108979;28;20228;-71
2022/10/07 08:27:10;;;;;;;7.75;3.25;;;18.00;99.90;;;;;;5109419;28;20253;-71
2022/10/07 08:29:36;;;;;;;7.60;3.83;;;18.20;99.80;;;;;;5097248;28;20228;-70
2022/10/07 08:32:03;;;;;;;5.80;2.80;;;18.40;99.20;;;;;;5109943;28;20237;-71
2022/10/07 08:34:31;;;;;;;5.53;2.60;;;18.50;98.60;;;;;;5111440;28;20672;-71
2022/10/07 08:36:58;;;;;;;5.97;3.00;;;18.70;98.50;;;;;;5108006;28;20196;-71
2022/10/07 08:39:28;;;;;;;5.57;2.85;;;18.90;98.00;;;;;;5111005;28;20201;-71
2022/10/07 08:42:02;;;;;;;7.00;3.08;;;19.10;97.70;;;;;;5104781;28;20249;-71
2022/10/07 08:44:32;;;;;;;6.60;2.67;;;19.30;96.80;;;;;;5102066;28;20333;-71
2022/10/07 08:47:06;;;;;;;6.25;2.42;;;19.50;96.00;;;;;;5105237;28;20721;-72
2022/10/07 08:49:56;;;;;;;12.68;2.33;;;19.60;95.60;;;;;;5107588;28;20280;-72
2022/10/07 08:52:32;;;;;;;6.65;2.67;;;19.80;95.20;;;;;;5103174;28;20204;-70
2022/10/07 08:55:00;;;;;;;5.97;2.20;;;20.20;95.50;;;;;;5096946;28;20241;-71
2022/10/07 08:57:38;;;;;;;5.60;2.13;;;21.10;95.70;;;;;;5101534;28;20224;-71
2022/10/07 09:00:07;;;;;;;5.50;2.28;;;23.50;91.50;;;;;;5110293;28;20585;-69
2022/10/07 09:02:43;;;;;;;5.78;2.35;;;26.90;76.50;;;;;;5110644;28;20586;-71
2022/10/07 09:05:22;;;;;;;5.80;2.20;;;30.20;58.10;;;;;;5110460;28;20200;-71
2022/10/07 09:07:52;;;;;;;3.67;2.28;;;33.00;48.40;;;;;;5107711;28;20198;-70
2022/10/07 09:10:29;;;;;;;3.90;2.47;;;35.50;43.60;;;;;;5105799;28;20235;-70
2022/10/07 09:13:01;;;;;;;5.57;2.22;;;37.50;38.60;;;;;;5107932;28;20196;-70
2022/10/07 09:15:39;;;;;;;4.20;2.00;;;38.90;36.40;;;;;;5105003;27;20207;-72
2022/10/07 09:18:16;;;;;;;5.30;2.33;;;40.00;34.10;;;;;;5097862;28;20204;-70
2022/10/07 09:20:52;;;;;;;5.95;1.98;;;41.50;32.10;;;;;;5108494;28;20660;-71
2022/10/07 09:23:22;;;;;;;6.10;1.90;;;43.00;30.00;;;;;;5107737;28;20223;-70
2022/10/07 09:25:50;;;;;;;6.63;2.05;;;44.40;28.70;;;;;;5107981;28;20322;-72
2022/10/07 09:28:20;;;;;;;5.75;1.70;;;45.00;27.70;;;;;;5107874;28;20207;-72
2022/10/07 09:30:47;;;;;;;5.93;2.03;;;45.50;27.40;;;;;;5108002;28;20210;-71
2022/10/07 09:33:17;;;;;;;6.18;2.13;;;46.20;26.80;;;;;;5110350;28;20206;-72
2022/10/07 09:35:52;;;;;;;6.22;1.63;;;46.50;26.40;;;;;;5108498;28;20652;-70
2022/10/07 09:38:30;;;;;;;2.72;1.70;;;47.00;25.50;;;;;;5108303;28;20206;-70
2022/10/07 09:41:16;;;;;;;3.67;1.90;;;47.60;25.10;;;;;;5107264;28;20203;-72
2022/10/07 09:44:00;;;;;;;2.63;1.38;;;47.90;24.80;;;;;;5108044;28;20268;-70
2022/10/07 09:46:35;;;;;;;7.05;1.98;;;48.40;24.30;;;;;;5089865;28;20652;-69
2022/10/07 09:49:04;;;;;;;7.07;1.80;;;48.70;24.10;;;;;;5104317;28;20211;-70
2022/10/07 09:51:34;;;;;;;4.30;2.50;;;49.10;23.70;;;;;;5104836;28;20203;-70
2022/10/07 09:54:02;;;;;;;4.00;1.98;;;49.80;23.70;;;;;;5107468;28;20215;-71
2022/10/07 09:56:38;;;;;;;3.72;1.70;;;50.00;23.20;;;;;;5108379;28;20207;-71
2022/10/07 09:59:26;;;;;;;3.30;1.80;;;50.00;22.90;;;;;;5107932;28;20206;-71
2022/10/07 10:01:55;;;;;;;4.47;1.67;;;50.20;22.60;;;;;;5099549;28;20215;-70
2022/10/07 10:04:28;;;;;;;5.70;1.77;;;50.30;22.50;;;;;;5106611;28;20209;-70
2022/10/07 10:07:01;;;;;;;3.40;1.65;;;50.60;22.40;;;;;;5106931;28;20198;-68
2022/10/07 10:09:28;;;;;;;6.43;2.00;;;51.00;22.20;;;;;;5107126;28;20223;-70
2022/10/07 10:12:08;;;;;;;4.45;1.90;;;50.50;21.90;;;;;;5109282;28;20214;-70
2022/10/07 10:14:43;;;;;;;3.45;1.70;;;50.50;22.10;;;;;;5107958;28;20206;-71
2022/10/07 10:17:26;;;;;;;3.45;1.63;;;50.60;22.00;;;;;;5107849;28;20199;-70
2022/10/07 10:19:53;;;;;;;3.35;1.70;;;50.60;21.90;;;;;;5107921;28;20214;-69
2022/10/07 10:22:26;;;;;;;3.92;1.38;;;51.10;21.90;;;;;;5107795;28;20239;-71
2022/10/07 10:27:47;;;;;;;4.25;1.40;;;51.90;21.20;;;;;;5107349;28;20280;-72
2022/10/07 10:30:19;;;;;;;2.78;1.50;;;51.80;21.10;;;;;;5107518;28;20207;-70
2022/10/07 10:33:10;;;;;;;3.15;1.67;;;51.70;21.10;;;;;;5110307;28;20196;-71
2022/10/07 10:35:46;;;;;;;2.97;1.40;;;52.20;21.10;;;;;;5112753;28;20203;-71
2022/10/07 10:38:34;;;;;;;3.30;1.48;;;53.00;20.90;;;;;;5107723;28;20243;-70
2022/10/07 10:41:18;;;;;;;3.60;1.40;;;53.30;20.30;;;;;;5109012;28;20530;-71
2022/10/07 10:44:19;;;;;;;3.08;1.60;;;53.00;20.40;;;;;;5105127;28;20282;-71
2022/10/07 10:46:54;;;;;;;2.25;1.80;;;53.10;20.50;;;;;;5110107;28;20234;-71
2022/10/07 10:49:29;;;;;;;2.33;1.48;;;53.30;20.40;;;;;;5111157;28;20230;-72
2022/10/07 10:52:22;;;;;;;2.83;1.60;;;53.50;20.00;;;;;;5113637;28;20655;-71
2022/10/07 10:55:06;;;;;;;3.40;1.42;;;54.00;19.90;;;;;;5112305;28;20195;-71
2022/10/07 10:57:44;;;;;;;6.35;1.40;;;54.60;19.70;;;;;;5109787;28;20296;-71
2022/10/07 11:00:13;;;;;;;2.55;1.33;;;55.00;19.70;;;;;;5103419;28;20644;-71
2022/10/07 11:03:25;;;;;;;3.47;1.48;;;55.40;19.50;;;;;;5112193;28;20207;-70
2022/10/07 11:05:54;;;;;;;2.78;1.60;;;55.50;19.20;;;;;;5053336;28;20207;-70
2022/10/07 11:08:25;;;;;;;2.65;1.55;;;55.60;19.00;;;;;;5111752;28;20211;-72
2022/10/07 11:10:57;;;;;;;2.75;1.70;;;55.30;19.00;;;;;;5112917;28;20207;-71
2022/10/07 11:13:30;;;;;;;3.45;1.50;;;55.00;19.10;;;;;;5110154;28;20207;-71
2022/10/07 11:16:01;;;;;;;3.58;1.48;;;55.00;19.00;;;;;;5107479;28;20576;-71
2022/10/07 11:18:34;;;;;;;1.50;1.38;;;54.50;19.10;;;;;;5111701;28;20210;-71
2022/10/07 11:21:04;;;;;;;2.00;1.30;;;54.20;19.10;;;;;;5112670;28;20199;-67
2022/10/07 11:23:42;;;;;;;4.18;1.77;;;54.20;19.30;;;;;;5108080;28;20226;-74
2022/10/07 11:26:17;;;;;;;3.05;1.67;;;54.50;19.30;;;;;;5109701;27;20604;-69
2022/10/07 11:28:45;;;;;;;1.83;1.40;;;54.90;19.20;;;;;;5109148;27;20724;-70
2022/10/07 11:31:19;;;;;;;1.90;1.40;;;55.10;19.10;;;;;;5099824;28;20226;-69
2022/10/07 11:33:50;;;;;;;2.40;1.70;;;55.50;18.90;;;;;;5109408;28;20221;-69
2022/10/07 11:36:20;;;;;;;2.53;1.42;;;55.50;18.60;;;;;;5106631;28;20214;-70
2022/10/07 11:38:48;;;;;;;2.40;1.23;;;55.10;18.60;;;;;;5110059;28;20225;-70
2022/10/07 11:41:22;;;;;;;2.30;1.70;;;55.00;18.80;;;;;;5110803;28;20607;-69
2022/10/07 11:43:55;;;;;;;6.75;2.10;;;55.00;18.90;;;;;;5110954;28;20683;-69
2022/10/07 11:46:25;;;;;;;1.95;1.80;;;55.50;18.90;;;;;;5111161;28;20294;-71
2022/10/07 11:48:57;;;;;;;1.40;1.30;;;55.60;18.70;;;;;;5111621;28;20743;-70
2022/10/07 11:51:28;;;;;;;3.10;1.88;;;55.80;18.70;;;;;;5110877;28;20211;-70
2022/10/07 11:53:58;;;;;;;2.53;2.00;;;56.20;18.80;;;;;;5112011;28;20246;-70
2022/10/07 11:56:27;;;;;;;1.88;1.52;;;56.50;18.60;;;;;;5108869;28;20204;-70
2022/10/07 11:59:00;;;;;;;1.83;1.58;;;56.30;18.60;;;;;;5112015;28;20238;-70
2022/10/07 12:01:49;;;;;;;2.03;1.77;;;56.40;18.60;;;;;;5110952;28;20597;-71
2022/10/07 12:04:39;;;;;;;1.70;1.50;;;56.50;18.50;;;;;;5111565;28;20320;-69
2022/10/07 12:07:33;;;;;;;2.03;1.80;;;56.50;18.50;;;;;;5112006;28;20686;-69
2022/10/07 12:10:22;;;;;;;4.05;2.10;;;56.50;18.60;;;;;;5110821;28;20796;-70
2022/10/07 12:12:55;;;;;;;4.25;2.42;;;56.70;18.40;;;;;;5105725;28;20206;-70
2022/10/07 12:15:41;;;;;;;2.75;1.50;;;56.20;18.60;;;;;;5110014;28;20207;-71
2022/10/07 12:18:28;;;;;;;4.30;2.03;;;55.60;18.70;;;;;;5104534;28;20723;-71
2022/10/07 12:21:07;;;;;;;1.67;1.58;;;55.20;18.80;;;;;;5105785;28;20207;-70
2022/10/07 12:23:44;;;;;;;2.67;1.70;;;55.00;18.80;;;;;;5110655;28;20223;-71
2022/10/07 12:26:50;;;;;;;1.67;1.58;;;55.10;18.90;;;;;;5107507;28;20326;-70
2022/10/07 12:29:24;;;;;;;3.05;1.60;;;55.20;18.90;;;;;;5104079;28;20187;-70
2022/10/07 12:31:51;;;;;;;4.45;1.77;;;54.70;18.90;;;;;;5106023;28;20198;-70
2022/10/07 12:34:27;;;;;;;3.25;1.92;;;53.70;19.10;;;;;;5109423;28;20483;-71
2022/10/07 12:37:26;;;;;;;8.30;1.60;;;53.10;19.40;;;;;;5108757;28;20199;-70
2022/10/07 12:39:53;;;;;;;1.98;1.67;;;52.60;19.60;;;;;;5097795;28;20218;-71
2022/10/07 12:42:20;;;;;;;1.60;1.50;;;51.90;19.30;;;;;;5108769;28;20207;-69
2022/10/07 12:44:51;;;;;;;2.72;1.65;;;49.60;19.90;;;;;;5106969;28;20238;-69
2022/10/07 12:47:24;;;;;;;3.08;1.70;;;47.10;21.00;;;;;;5106207;28;20211;-69
2022/10/07 12:49:57;;;;;;;2.70;1.60;;;44.50;22.70;;;;;;5110948;28;20222;-69
2022/10/07 12:52:35;;;;;;;2.15;1.40;;;42.50;24.00;;;;;;5108642;28;20212;-69
2022/10/07 12:55:08;;;;;;;1.90;1.67;;;41.30;24.80;;;;;;5109507;28;20584;-70
2022/10/07 12:57:37;;;;;;;3.83;1.55;;;40.70;25.50;;;;;;5108483;28;20260;-70
2022/10/07 13:00:06;;;;;;;6.45;1.90;;;41.20;25.60;;;;;;5108948;28;20233;-70
2022/10/07 13:03:08;;;;;;;2.17;1.60;;;42.20;25.00;;;;;;5108740;28;20207;-69
2022/10/07 13:06:30;;;;;;;2.35;1.60;;;43.30;24.50;;;;;;5105075;28;20203;-69
2022/10/07 13:09:41;;;;;;;1.50;1.30;;;44.20;23.90;;;;;;5015115;28;20225;-69
2022/10/07 13:12:30;;;;;;;1.50;1.33;;;44.50;23.50;;;;;;5044300;28;20213;-69
2022/10/07 13:15:15;;;;;;;4.75;1.50;;;43.70;23.20;;;;;;5045607;28;20668;-69